Time,TemperatureF,DewpointF,PressureIn,WindDirection,WindDirectionDegrees,WindSpeedMPH,WindSpeedGustMPH,Humidity,HourlyPrecipIn,Conditions,Clouds,dailyrainin,SolarRadiationWatts/m^2,SoftwareType,DateUTC
2013-03-03 00:21:00,45.0,40.0,-100.00,ESE,114,17.0,30.0,83,0.00,,,0.00,0.000000,,2013-03-03 10:21:00,
2013-03-03 00:32:00,45.0,40.0,-100.00,ESE,114,17.0,30.0,83,0.00,,,0.00,0.000000,,2013-03-03 10:32:00,
2013-03-03 00:42:00,45.0,40.0,-100.00,ESE,114,17.0,30.0,83,0.00,,,0.00,0.000000,,2013-03-03 10:42:00,
2013-03-03 00:51:00,45.0,40.0,-100.00,ESE,114,17.0,30.0,83,0.00,,,0.00,0.000000,,2013-03-03 10:51:00,
2013-03-03 01:21:00,44.0,40.0,-100.00,ESE,119,19.0,30.0,87,0.00,,,0.00,0.000000,,2013-03-03 11:21:00,
2013-03-03 01:31:00,44.0,40.0,-100.00,ESE,119,19.0,30.0,87,0.00,,,0.00,0.000000,,2013-03-03 11:31:00,
2013-03-03 01:42:00,44.0,40.0,-100.00,ESE,119,19.0,30.0,87,0.00,,,0.00,0.000000,,2013-03-03 11:42:00,
2013-03-03 01:52:00,44.0,40.0,-100.00,ESE,119,19.0,30.0,87,0.00,,,0.00,0.000000,,2013-03-03 11:52:00,
2013-03-03 02:21:00,46.0,42.0,-100.00,SE,131,19.0,29.0,87,0.00,,,-99.99,0.000000,,2013-03-03 12:21:00,
2013-03-03 02:32:00,46.0,42.0,-100.00,SE,131,19.0,29.0,87,0.00,,,-99.99,0.000000,,2013-03-03 12:32:00,
2013-03-03 02:42:00,46.0,42.0,-100.00,SE,131,19.0,29.0,87,0.00,,,-99.99,0.000000,,2013-03-03 12:42:00,
2013-03-03 02:52:00,46.0,42.0,-100.00,SE,131,19.0,29.0,87,0.00,,,-99.99,0.000000,,2013-03-03 12:52:00,
2013-03-03 03:21:00,46.0,43.0,-100.00,ESE,115,22.0,33.0,88,0.00,,,0.00,0.000000,,2013-03-03 13:21:00,
2013-03-03 03:32:00,46.0,43.0,-100.00,ESE,115,22.0,33.0,88,0.00,,,0.00,0.000000,,2013-03-03 13:32:00,
2013-03-03 03:42:00,46.0,43.0,-100.00,ESE,115,22.0,33.0,88,0.00,,,0.00,0.000000,,2013-03-03 13:42:00,
2013-03-03 03:51:00,46.0,43.0,-100.00,ESE,115,22.0,33.0,88,0.00,,,0.00,0.000000,,2013-03-03 13:51:00,
2013-03-03 04:21:00,44.0,41.0,-100.00,ESE,123,20.0,33.0,88,0.00,,,0.00,0.000000,,2013-03-03 14:21:00,
2013-03-03 04:32:00,44.0,41.0,-100.00,ESE,123,20.0,33.0,88,0.00,,,0.00,0.000000,,2013-03-03 14:32:00,
2013-03-03 04:42:00,44.0,41.0,-100.00,ESE,123,20.0,33.0,88,0.00,,,0.00,0.000000,,2013-03-03 14:42:00,
2013-03-03 04:52:00,44.0,41.0,-100.00,ESE,123,20.0,33.0,88,0.00,,,0.00,0.000000,,2013-03-03 14:52:00,
2013-03-03 05:22:00,43.0,40.0,-100.00,ESE,104,20.0,33.0,90,0.00,,,0.00,0.000000,,2013-03-03 15:22:00,
2013-03-03 05:32:00,43.0,40.0,-100.00,ESE,104,20.0,33.0,90,0.00,,,0.00,0.000000,,2013-03-03 15:32:00,
2013-03-03 05:42:00,43.0,40.0,-100.00,ESE,104,20.0,33.0,90,0.00,,,0.00,0.000000,,2013-03-03 15:42:00,
2013-03-03 05:51:00,43.0,40.0,-100.00,ESE,104,20.0,33.0,90,0.00,,,0.00,0.000000,,2013-03-03 15:51:00,
2013-03-03 06:21:00,42.0,35.0,-100.00,ESE,103,17.0,25.0,76,0.00,,,0.00,0.000000,,2013-03-03 16:21:00,
2013-03-03 06:31:00,42.0,35.0,-100.00,ESE,103,17.0,25.0,76,0.00,,,0.00,0.000000,,2013-03-03 16:31:00,
2013-03-03 06:41:00,42.0,35.0,-100.00,ESE,103,17.0,25.0,76,0.00,,,0.00,0.000000,,2013-03-03 16:41:00,
2013-03-03 06:51:00,42.0,35.0,-100.00,ESE,103,17.0,25.0,76,0.00,,,0.00,0.000000,,2013-03-03 16:51:00,
2013-03-03 07:22:00,40.0,33.0,-100.00,ESE,103,12.0,22.0,75,0.00,,,0.00,5.000000,,2013-03-03 17:22:00,
2013-03-03 07:32:00,40.0,33.0,-100.00,ESE,103,12.0,22.0,75,0.00,,,0.00,5.000000,,2013-03-03 17:32:00,
2013-03-03 07:42:00,40.0,33.0,-100.00,ESE,103,12.0,22.0,75,0.00,,,0.00,5.000000,,2013-03-03 17:42:00,
2013-03-03 07:52:00,40.0,33.0,-100.00,ESE,103,12.0,22.0,75,0.00,,,0.00,5.000000,,2013-03-03 17:52:00,
2013-03-03 08:21:00,53.0,8.0,-100.00,SE,130,13.0,23.0,16,0.00,,,0.00,196.000000,,2013-03-03 18:21:00,
2013-03-03 08:31:00,53.0,8.0,-100.00,SE,130,13.0,23.0,16,0.00,,,0.00,196.000000,,2013-03-03 18:31:00,
2013-03-03 08:41:00,53.0,8.0,-100.00,SE,130,13.0,23.0,16,0.00,,,0.00,196.000000,,2013-03-03 18:41:00,
2013-03-03 08:52:00,53.0,8.0,-100.00,SE,130,13.0,23.0,16,0.00,,,0.00,196.000000,,2013-03-03 18:52:00,
2013-03-03 09:21:00,59.0,5.0,-100.00,ESE,115,23.0,33.0,11,0.00,,,0.00,495.000000,,2013-03-03 19:21:00,
2013-03-03 09:31:00,59.0,5.0,-100.00,ESE,115,23.0,33.0,11,0.00,,,0.00,495.000000,,2013-03-03 19:31:00,
2013-03-03 09:42:00,59.0,5.0,-100.00,ESE,115,23.0,33.0,11,0.00,,,0.00,495.000000,,2013-03-03 19:42:00,
2013-03-03 09:51:00,59.0,5.0,-100.00,ESE,115,23.0,33.0,11,0.00,,,0.00,495.000000,,2013-03-03 19:51:00,
2013-03-03 10:21:00,61.0,-1.0,-100.00,ESE,108,22.0,36.0,8,0.00,,,0.00,864.000000,,2013-03-03 20:21:00,
2013-03-03 10:32:00,61.0,-1.0,-100.00,ESE,108,22.0,36.0,8,0.00,,,0.00,864.000000,,2013-03-03 20:32:00,
2013-03-03 10:42:00,61.0,-1.0,-100.00,ESE,108,22.0,36.0,8,0.00,,,0.00,864.000000,,2013-03-03 20:42:00,
2013-03-03 10:52:00,61.0,-1.0,-100.00,ESE,108,22.0,36.0,8,0.00,,,0.00,864.000000,,2013-03-03 20:52:00,
2013-03-03 11:21:00,65.0,5.0,-100.00,ESE,109,24.0,37.0,9,0.00,,,0.00,1096.000000,,2013-03-03 21:21:00,
2013-03-03 11:32:00,65.0,5.0,-100.00,ESE,109,24.0,37.0,9,0.00,,,0.00,1096.000000,,2013-03-03 21:32:00,
2013-03-03 11:41:00,65.0,5.0,-100.00,ESE,109,24.0,37.0,9,0.00,,,0.00,1096.000000,,2013-03-03 21:41:00,
2013-03-03 11:52:00,65.0,5.0,-100.00,ESE,109,24.0,37.0,9,0.00,,,0.00,1096.000000,,2013-03-03 21:52:00,
2013-03-03 12:21:00,66.0,6.0,-100.00,ESE,103,24.0,37.0,9,0.00,,,0.00,1244.000000,,2013-03-03 22:21:00,
2013-03-03 12:32:00,66.0,6.0,-100.00,ESE,103,24.0,37.0,9,0.00,,,0.00,1244.000000,,2013-03-03 22:32:00,
2013-03-03 12:42:00,66.0,6.0,-100.00,ESE,103,24.0,37.0,9,0.00,,,0.00,1244.000000,,2013-03-03 22:42:00,
2013-03-03 12:52:00,66.0,6.0,-100.00,ESE,103,24.0,37.0,9,0.00,,,0.00,1244.000000,,2013-03-03 22:52:00,
2013-03-03 13:21:00,65.0,9.0,-100.00,East,98,24.0,36.0,11,0.00,,,0.00,1294.000000,,2013-03-03 23:21:00,
2013-03-03 13:31:00,65.0,9.0,-100.00,East,98,24.0,36.0,11,0.00,,,0.00,1294.000000,,2013-03-03 23:31:00,
2013-03-03 13:41:00,65.0,9.0,-100.00,East,98,24.0,36.0,11,0.00,,,0.00,1294.000000,,2013-03-03 23:41:00,
2013-03-03 13:52:00,65.0,9.0,-100.00,East,98,24.0,36.0,11,0.00,,,0.00,1294.000000,,2013-03-03 23:52:00,
2013-03-03 14:21:00,66.0,10.0,-100.00,East,100,24.0,37.0,11,0.00,,,0.00,1257.000000,,2013-03-04 00:21:00,
2013-03-03 14:32:00,66.0,10.0,-100.00,East,100,24.0,37.0,11,0.00,,,0.00,1257.000000,,2013-03-04 00:32:00,
2013-03-03 14:42:00,66.0,10.0,-100.00,East,100,24.0,37.0,11,0.00,,,0.00,1257.000000,,2013-03-04 00:42:00,
2013-03-03 14:51:00,66.0,10.0,-100.00,East,100,24.0,37.0,11,0.00,,,0.00,1257.000000,,2013-03-04 00:51:00,
2013-03-03 15:21:00,64.0,18.0,-100.00,East,89,23.0,38.0,17,0.00,,,0.00,1124.000000,,2013-03-04 01:21:00,
2013-03-03 15:31:00,64.0,18.0,-100.00,East,89,23.0,38.0,17,0.00,,,0.00,1124.000000,,2013-03-04 01:31:00,
2013-03-03 15:42:00,64.0,18.0,-100.00,East,89,23.0,38.0,17,0.00,,,0.00,1124.000000,,2013-03-04 01:42:00,
2013-03-03 15:51:00,64.0,18.0,-100.00,East,89,23.0,38.0,17,0.00,,,0.00,1124.000000,,2013-03-04 01:51:00,
2013-03-03 16:22:00,64.0,25.0,-100.00,ESE,104,22.0,38.0,23,0.00,,,0.00,903.000000,,2013-03-04 02:22:00,
2013-03-03 16:32:00,64.0,25.0,-100.00,ESE,104,22.0,38.0,23,0.00,,,0.00,903.000000,,2013-03-04 02:32:00,
2013-03-03 16:42:00,64.0,25.0,-100.00,ESE,104,22.0,38.0,23,0.00,,,0.00,903.000000,,2013-03-04 02:42:00,
2013-03-03 16:52:00,64.0,25.0,-100.00,ESE,104,22.0,38.0,23,0.00,,,0.00,903.000000,,2013-03-04 02:52:00,
2013-03-03 17:21:00,61.0,28.0,-100.00,ESE,102,22.0,33.0,28,0.00,,,0.00,602.000000,,2013-03-04 03:21:00,
2013-03-03 17:32:00,61.0,28.0,-100.00,ESE,102,22.0,33.0,28,0.00,,,0.00,602.000000,,2013-03-04 03:32:00,
2013-03-03 17:41:00,61.0,28.0,-100.00,ESE,102,22.0,33.0,28,0.00,,,0.00,602.000000,,2013-03-04 03:41:00,
2013-03-03 17:52:00,61.0,28.0,-100.00,ESE,102,22.0,33.0,28,0.00,,,0.00,602.000000,,2013-03-04 03:52:00,
2013-03-03 18:22:00,57.0,27.0,-100.00,East,96,19.0,32.0,32,0.00,,,0.00,187.000000,,2013-03-04 04:22:00,
2013-03-03 18:32:00,57.0,27.0,-100.00,East,96,19.0,32.0,32,0.00,,,0.00,187.000000,,2013-03-04 04:32:00,
2013-03-03 18:42:00,57.0,27.0,-100.00,East,96,19.0,32.0,32,0.00,,,0.00,187.000000,,2013-03-04 04:42:00,
2013-03-03 18:51:00,57.0,27.0,-100.00,East,96,19.0,32.0,32,0.00,,,0.00,187.000000,,2013-03-04 04:51:00,
2013-03-03 19:22:00,56.0,28.0,-100.00,East,88,15.0,27.0,34,0.00,,,0.00,15.000000,,2013-03-04 05:22:00,
2013-03-03 19:31:00,56.0,28.0,-100.00,East,88,15.0,27.0,34,0.00,,,0.00,15.000000,,2013-03-04 05:31:00,
2013-03-03 19:42:00,56.0,28.0,-100.00,East,88,15.0,27.0,34,0.00,,,0.00,15.000000,,2013-03-04 05:42:00,
2013-03-03 19:52:00,56.0,28.0,-100.00,East,88,15.0,27.0,34,0.00,,,0.00,15.000000,,2013-03-04 05:52:00,
2013-03-03 20:21:00,53.0,17.0,-100.00,East,91,17.0,31.0,24,0.00,,,0.00,0.000000,,2013-03-04 06:21:00,
2013-03-03 20:31:00,53.0,17.0,-100.00,East,91,17.0,31.0,24,0.00,,,0.00,0.000000,,2013-03-04 06:31:00,
2013-03-03 20:42:00,53.0,17.0,-100.00,East,91,17.0,31.0,24,0.00,,,0.00,0.000000,,2013-03-04 06:42:00,
2013-03-03 20:51:00,53.0,17.0,-100.00,East,91,17.0,31.0,24,0.00,,,0.00,0.000000,,2013-03-04 06:51:00,
2013-03-03 21:21:00,52.0,21.0,-100.00,ESE,106,12.0,26.0,29,0.00,,,0.00,0.000000,,2013-03-04 07:21:00,
2013-03-03 21:32:00,52.0,21.0,-100.00,ESE,106,12.0,26.0,29,0.00,,,0.00,0.000000,,2013-03-04 07:32:00,
2013-03-03 21:41:00,52.0,21.0,-100.00,ESE,106,12.0,26.0,29,0.00,,,0.00,0.000000,,2013-03-04 07:41:00,
2013-03-03 21:51:00,52.0,21.0,-100.00,ESE,106,12.0,26.0,29,0.00,,,0.00,0.000000,,2013-03-04 07:51:00,
2013-03-03 22:21:00,48.0,18.0,-100.00,ESE,107,11.0,17.0,30,0.00,,,0.00,0.000000,,2013-03-04 08:21:00,
2013-03-03 22:31:00,48.0,18.0,-100.00,ESE,107,11.0,17.0,30,0.00,,,0.00,0.000000,,2013-03-04 08:31:00,
2013-03-03 22:41:00,48.0,18.0,-100.00,ESE,107,11.0,17.0,30,0.00,,,0.00,0.000000,,2013-03-04 08:41:00,
2013-03-03 22:52:00,48.0,18.0,-100.00,ESE,107,11.0,17.0,30,0.00,,,0.00,0.000000,,2013-03-04 08:52:00,
2013-03-03 23:21:00,41.0,37.0,-100.00,East,101,17.0,24.0,87,0.00,,,0.00,0.000000,,2013-03-04 09:21:00,
2013-03-03 23:31:00,41.0,37.0,-100.00,East,101,17.0,24.0,87,0.00,,,0.00,0.000000,,2013-03-04 09:31:00,
2013-03-03 23:42:00,41.0,37.0,-100.00,East,101,17.0,24.0,87,0.00,,,0.00,0.000000,,2013-03-04 09:42:00,
2013-03-03 23:51:00,41.0,37.0,-100.00,East,101,17.0,24.0,87,0.00,,,0.00,0.000000,,2013-03-04 09:51:00,